• Join FlightAware (Why Join?)
  • Login
  • US Flag 
03:17AM EDT


 

Airport Tracker/Info


-or-


 

Live Flight TrackerFlight Track Log ✈ WAV260 ✈ 02-Feb-2014 ✈ PAFA / FAI - PFYU

Flight Track Log - Related Links

Times and Time Zones

All times are in EST time to prevent confusion due to time zone crossing. See the WAV260 flight status page for this flight to view local times or setup timezone preferences in your user account.

Time Position Orientation Groundspeed Altitude Reporting Facility
EST Latitude Longitude Course Direction KTS MPH feet Rate Location/Type
09:14PM 64.8833 -147.7167 31° Northeast 130 150 4,100  Level Anchorage Center
09:15PM 64.9167 -147.6833 23° Northeast 120 138 5,100 840 Climbing Anchorage Center
09:16PM 64.9500 -147.6500 23° Northeast 120 138 5,800 720 Climbing Anchorage Center
09:17PM 65.0302 -147.5465 32° Northeast  Level FlightAware Approximate
09:17PM 64.9667 -147.6000 52° Northeast 120 138 6,600  Level Anchorage Center
09:18PM 65.0668 -147.4887 35° Northeast  Level FlightAware Approximate
09:18PM 65.0000 -147.5667 23° Northeast 120 138 7,400  Level Anchorage Center
09:19PM 65.1029 -147.4292 31° Northeast  Level FlightAware Approximate
09:19PM 65.0333 -147.5333 23° Northeast 130 150 8,400  Level Anchorage Center
09:20PM 65.0667 -147.4833 32° Northeast 140 161 9,000 240 Climbing Anchorage Center
09:21PM 65.1000 -147.4333 32° Northeast 160 184 9,000  Level Anchorage Center
09:22PM 65.1500 -147.3833 23° Northeast 170 196 9,000  Level Anchorage Center
09:23PM 65.1833 -147.3167 40° Northeast 170 196 9,000  Level Anchorage Center
09:24PM 65.2167 -147.2667 32° Northeast 160 184 9,000  Level Anchorage Center
09:25PM 65.2667 -147.2167 23° Northeast 160 184 9,000  Level Anchorage Center
09:26PM 65.3000 -147.1500 40° Northeast 160 184 9,000  Level Anchorage Center
09:27PM 65.3333 -147.0833 40° Northeast 160 184 9,000  Level Anchorage Center
09:28PM 65.3833 -147.0333 23° Northeast 160 184 9,000  Level Anchorage Center
09:29PM 65.4167 -146.9833 32° Northeast 160 184 9,000  Level Anchorage Center
09:30PM 65.4500 -146.9167 40° Northeast 170 196 9,000  Level Anchorage Center
09:31PM 65.5000 -146.8500 29° Northeast 170 196 9,000  Level Anchorage Center
09:32PM 65.5333 -146.8000 32° Northeast 160 184 9,000  Level Anchorage Center
09:33PM 65.5667 -146.7333 40° Northeast 160 184 9,000  Level Anchorage Center
09:34PM 65.6167 -146.6833 22° Northeast 160 184 9,000  Level Anchorage Center
09:35PM 65.6500 -146.6167 39° Northeast 170 196 9,000  Level Anchorage Center
09:36PM 65.7000 -146.5667 22° Northeast 170 196 9,000  Level Anchorage Center
09:37PM 65.7333 -146.5167 32° Northeast 170 196 9,000  Level Anchorage Center
09:38PM 65.7833 -146.4667 22° Northeast 170 196 9,000 -120 Level Anchorage Center
09:39PM 65.8167 -146.4333 22° Northeast 170 196 8,800 -300 Descending Anchorage Center
09:40PM 65.8667 -146.3833 22° Northeast 160 184 8,500 -480 Descending Anchorage Center
09:41PM 65.9167 -146.3333 22° Northeast 180 207 7,900 -600 Descending Anchorage Center
09:42PM 65.9500 -146.2833 31° Northeast 160 184 7,400 -600 Descending Anchorage Center
09:43PM 66.0000 -146.2333 22° Northeast 170 196 6,800 -600 Descending Anchorage Center
09:44PM 66.0333 -146.2000 22° Northeast 170 196 6,300 -600 Descending Anchorage Center
09:45PM 66.0833 -146.1500 22° Northeast 170 196 5,700 -540 Descending Anchorage Center
09:46PM 66.1333 -146.1000 22° Northeast 170 196 5,300 -300 Descending Anchorage Center
09:47PM 66.1667 -146.0667 22° Northeast 170 196 5,100 -300 Descending Anchorage Center
09:48PM 66.2167 -146.0167 22° Northeast 160 184 4,700 -300 Descending Anchorage Center
09:49PM 66.2500 -145.9667 31° Northeast 160 184 4,500 -300 Descending Anchorage Center
09:50PM 66.2833 -145.9167 31° Northeast 160 184 4,200 -360 Descending Anchorage Center
09:51PM 66.3333 -145.8667 22° Northeast 170 196 3,800 -360 Descending Anchorage Center
09:52PM 66.3667 -145.8167 31° Northeast 170 196 3,500 -240 Descending Anchorage Center
09:53PM 66.4167 -145.7500 28° Northeast 150 173 3,400  Descending Anchorage Center
09:54PM 66.4500 -145.7167 22° Northeast 120 138 3,500 60 Climbing Anchorage Center
09:55PM 66.4667 -145.6500 58° Northeast 110 127 3,600  Climbing Anchorage Center
09:56PM 66.4833 -145.5833 58° Northeast 110 127 3,600 -300 Level Anchorage Center
09:57PM 66.5000 -145.5167 58° Northeast 110 127 3,100 -600 Descending Anchorage Center
09:58PM 66.5167 -145.4500 58° Northeast 120 138 2,500 -600 Descending Anchorage Center
10:01PM 66.5458 -145.3439 34° Northeast  Level Estimated
10:08PM 66.5667 -145.2333 34° Northeast  Level FlightAware Approximate
10:09PM 66.5724 -145.2463 34° Northeast  Level Estimated
10:10PM 66.5724 -145.2463 34° Northeast  Level Estimated
10:11PM 66.5724 -145.2463 34° Northeast  Level Estimated
10:12PM 66.5724 -145.2463 34° Northeast  Level Estimated